Time;durP1;ratioP1;P1;durP2;ratioP2;P2;SDS_P1;SDS_P2;PMS_P1;PMS_P2;Temp;Humidity;BMP_temperature;BMP_pressure;BME280_temperature;BME280_humidity;BME280_pressure;Samples;Min_cycle;Max_cycle;Signal;HPM_P1;HPM_P2
2022/07/29 00:00:05;;;;;;;5.20;1.92;;;20.00;70.00;;;;;;4943292;28;20208;-76
2022/07/29 00:02:31;;;;;;;4.38;2.00;;;20.00;68.10;;;;;;4975325;28;20207;-76
2022/07/29 00:04:57;;;;;;;4.20;2.30;;;19.90;65.30;;;;;;4959598;28;20599;-76
2022/07/29 00:07:23;;;;;;;3.03;1.77;;;19.90;64.70;;;;;;4975120;28;20202;-76
2022/07/29 00:09:48;;;;;;;4.32;1.85;;;20.00;65.30;;;;;;4975090;28;20253;-76
2022/07/29 00:12:14;;;;;;;3.15;2.08;;;20.10;62.20;;;;;;4959125;28;20271;-76
2022/07/29 00:14:40;;;;;;;2.03;1.83;;;20.20;62.00;;;;;;4943109;28;20210;-76
2022/07/29 00:17:05;;;;;;;3.38;1.83;;;20.20;62.20;;;;;;4946939;28;20271;-76
2022/07/29 00:19:31;;;;;;;2.92;1.98;;;20.20;61.30;;;;;;4947086;28;20203;-76
2022/07/29 00:21:56;;;;;;;2.83;2.00;;;20.20;61.40;;;;;;4962863;28;20263;-76
2022/07/29 00:24:22;;;;;;;3.75;1.90;;;20.20;64.20;;;;;;4946933;28;20707;-76
2022/07/29 00:26:47;;;;;;;3.85;1.90;;;20.20;62.70;;;;;;4962777;28;20176;-76
2022/07/29 00:29:13;;;;;;;4.20;2.05;;;20.30;61.60;;;;;;4946861;28;20214;-76
2022/07/29 00:31:39;;;;;;;3.42;1.98;;;20.30;61.90;;;;;;4962921;28;20694;-76
2022/07/29 00:34:06;;;;;;;2.95;1.75;;;20.30;61.80;;;;;;4962788;28;20212;-76
2022/07/29 00:36:31;;;;;;;4.15;2.08;;;20.30;63.20;;;;;;4947057;28;20184;-76
2022/07/29 00:39:00;;;;;;;4.43;2.00;;;20.30;63.00;;;;;;4962778;28;20172;-76
2022/07/29 00:41:25;;;;;;;2.63;1.92;;;20.30;63.60;;;;;;4946793;28;20196;-76
2022/07/29 00:43:51;;;;;;;3.90;2.00;;;20.30;63.00;;;;;;4946346;28;20248;-75
2022/07/29 00:46:16;;;;;;;2.88;1.80;;;20.20;64.00;;;;;;4962480;28;20558;-75
2022/07/29 00:48:42;;;;;;;1.98;1.67;;;20.10;62.80;;;;;;4978616;28;20187;-75
2022/07/29 00:51:10;;;;;;;4.20;1.95;;;20.10;64.10;;;;;;4962566;28;20681;-75
2022/07/29 00:53:36;;;;;;;5.33;2.07;;;20.00;64.00;;;;;;4978437;28;20215;-75
2022/07/29 00:56:01;;;;;;;2.90;1.90;;;20.00;63.50;;;;;;4962194;28;20293;-75
2022/07/29 00:58:27;;;;;;;2.50;1.77;;;20.00;63.20;;;;;;4962339;28;20292;-75
2022/07/29 01:00:53;;;;;;;3.65;2.10;;;20.00;63.30;;;;;;4962562;28;20680;-75
2022/07/29 01:03:19;;;;;;;7.53;1.88;;;19.90;63.20;;;;;;4962400;28;20215;-76
2022/07/29 01:05:46;;;;;;;3.00;2.13;;;19.90;63.10;;;;;;4978241;28;20554;-76
2022/07/29 01:08:13;;;;;;;4.22;2.05;;;19.90;63.90;;;;;;4945986;28;20271;-75
2022/07/29 01:10:40;;;;;;;4.30;2.07;;;19.90;63.10;;;;;;4961882;28;20563;-75
2022/07/29 01:13:07;;;;;;;2.17;1.70;;;19.90;63.80;;;;;;4978062;28;20176;-76
2022/07/29 01:15:37;;;;;;;2.37;1.70;;;19.80;63.40;;;;;;4977991;28;20180;-76
2022/07/29 01:18:15;;;;;;;3.90;1.80;;;19.80;64.50;;;;;;4977837;28;20186;-76
2022/07/29 01:21:18;;;;;;;3.03;1.52;;;19.80;64.10;;;;;;4977967;28;20202;-75
2022/07/29 01:24:02;;;;;;;4.77;1.77;;;19.70;64.40;;;;;;4977883;28;20234;-75
2022/07/29 01:26:33;;;;;;;2.87;1.70;;;19.70;66.00;;;;;;4977470;28;20191;-75
2022/07/29 01:29:28;;;;;;;3.10;1.80;;;19.60;65.30;;;;;;4977730;28;20250;-76
2022/07/29 01:32:13;;;;;;;4.43;1.60;;;19.60;66.20;;;;;;4995202;28;20168;-75
2022/07/29 01:35:07;;;;;;;2.47;1.60;;;19.70;65.80;;;;;;4961855;28;20187;-75
2022/07/29 01:37:55;;;;;;;3.43;1.83;;;19.70;65.40;;;;;;4977661;28;20199;-75
2022/07/29 01:40:38;;;;;;;4.07;2.00;;;19.60;65.00;;;;;;4977537;28;20222;-75
2022/07/29 01:43:11;;;;;;;4.07;2.00;;;19.60;65.40;;;;;;4977708;28;20230;-75
2022/07/29 01:46:02;;;;;;;4.93;1.90;;;19.60;65.70;;;;;;4995100;28;20176;-75
2022/07/29 01:48:39;;;;;;;2.10;1.60;;;19.60;66.10;;;;;;4968469;28;20696;-75
2022/07/29 01:51:12;;;;;;;3.10;1.83;;;19.70;67.10;;;;;;4977430;28;20195;-75
2022/07/29 01:53:52;;;;;;;3.80;1.63;;;19.70;67.30;;;;;;4978137;28;20241;-76
2022/07/29 01:56:20;;;;;;;2.85;1.80;;;19.70;68.50;;;;;;4994589;28;20646;-75
2022/07/29 01:58:49;;;;;;;1.60;1.50;;;19.60;69.10;;;;;;4945233;28;20175;-75
2022/07/29 02:01:16;;;;;;;5.60;1.70;;;19.60;69.60;;;;;;4945571;28;20176;-75
2022/07/29 02:03:45;;;;;;;2.43;1.60;;;19.60;70.50;;;;;;4977421;28;20182;-75
2022/07/29 02:06:15;;;;;;;2.25;1.70;;;19.60;70.80;;;;;;4994437;28;20172;-75
2022/07/29 02:08:41;;;;;;;2.60;2.15;;;19.50;71.10;;;;;;4961036;28;20179;-75
2022/07/29 02:11:08;;;;;;;3.42;1.80;;;19.40;72.00;;;;;;4961019;28;20187;-75
2022/07/29 02:13:36;;;;;;;2.42;1.60;;;19.40;72.60;;;;;;4961043;28;20590;-75
2022/07/29 02:16:05;;;;;;;2.43;1.60;;;19.30;73.50;;;;;;4961189;28;20179;-75
2022/07/29 02:18:32;;;;;;;3.23;1.70;;;19.30;74.20;;;;;;4960597;28;20201;-75
2022/07/29 02:21:00;;;;;;;2.05;1.85;;;19.30;73.80;;;;;;4976841;28;20192;-75
2022/07/29 02:23:26;;;;;;;4.13;1.70;;;19.30;74.40;;;;;;4976769;28;20270;-75
2022/07/29 02:25:56;;;;;;;2.08;1.50;;;19.10;77.00;;;;;;4960715;28;20186;-76
2022/07/29 02:28:27;;;;;;;4.17;1.80;;;19.00;78.90;;;;;;4976798;28;20182;-75
2022/07/29 02:30:55;;;;;;;4.80;1.90;;;19.00;79.60;;;;;;4960686;28;20203;-75
2022/07/29 02:33:23;;;;;;;1.60;1.50;;;18.90;79.60;;;;;;4960835;28;20199;-75
2022/07/29 02:35:50;;;;;;;3.60;1.70;;;18.90;78.90;;;;;;4976575;28;20172;-75
2022/07/29 02:41:11;;;;;;;3.00;1.50;;;18.90;76.40;;;;;;4994149;28;20222;-75
2022/07/29 02:43:38;;;;;;;6.23;1.70;;;18.90;77.70;;;;;;4976202;28;20313;-75
2022/07/29 02:46:08;;;;;;;3.37;1.70;;;19.00;76.60;;;;;;4994184;28;20186;-75
2022/07/29 02:48:43;;;;;;;3.90;1.70;;;18.90;78.70;;;;;;4960604;28;20267;-75
2022/07/29 02:51:24;;;;;;;3.20;1.73;;;18.80;80.20;;;;;;4976333;28;20229;-75
2022/07/29 02:53:54;;;;;;;3.80;1.83;;;18.90;80.80;;;;;;4976237;28;20207;-75
2022/07/29 02:56:27;;;;;;;3.07;1.73;;;18.90;80.80;;;;;;4960230;28;20180;-75
2022/07/29 02:59:00;;;;;;;3.67;1.80;;;18.90;82.00;;;;;;4944740;28;20180;-75
2022/07/29 03:01:31;;;;;;;3.97;1.90;;;18.80;82.70;;;;;;4993581;28;20171;-75
2022/07/29 03:04:01;;;;;;;2.83;1.70;;;18.70;83.80;;;;;;4976045;28;20176;-75
2022/07/29 03:06:28;;;;;;;2.73;1.80;;;18.60;85.00;;;;;;4959939;28;20234;-75
2022/07/29 03:08:55;;;;;;;2.67;1.60;;;18.40;86.80;;;;;;4976071;28;20180;-75
2022/07/29 03:11:21;;;;;;;3.93;1.80;;;18.30;88.90;;;;;;4976095;28;20179;-75
2022/07/29 03:13:47;;;;;;;2.73;1.73;;;18.20;90.40;;;;;;4959794;28;20582;-75
2022/07/29 03:16:14;;;;;;;2.00;1.70;;;18.00;92.10;;;;;;4959751;28;20179;-75
2022/07/29 03:18:40;;;;;;;4.53;1.90;;;18.10;94.30;;;;;;4959773;28;20186;-75
2022/07/29 03:21:05;;;;;;;4.73;1.90;;;18.00;96.10;;;;;;4959817;28;20180;-75
2022/07/29 03:23:32;;;;;;;3.77;2.07;;;18.00;96.20;;;;;;4959843;28;20583;-75
2022/07/29 03:25:57;;;;;;;6.00;2.00;;;18.10;97.00;;;;;;4959807;28;20191;-75
2022/07/29 03:28:23;;;;;;;5.40;2.03;;;18.20;97.10;;;;;;4992961;28;20543;-75
2022/07/29 03:30:49;;;;;;;4.80;1.80;;;18.10;96.50;;;;;;4959518;28;20235;-76
2022/07/29 03:33:16;;;;;;;7.57;2.17;;;18.20;97.10;;;;;;4993308;28;20230;-75
2022/07/29 03:35:41;;;;;;;2.83;1.70;;;18.20;97.40;;;;;;4975838;28;20168;-75
2022/07/29 03:38:07;;;;;;;2.63;1.80;;;18.20;96.60;;;;;;4975550;28;20183;-75
2022/07/29 03:40:39;;;;;;;4.63;1.93;;;18.20;97.10;;;;;;4959534;28;20215;-75
2022/07/29 03:43:06;;;;;;;3.00;1.70;;;18.20;95.80;;;;;;4959844;28;20540;-75
2022/07/29 03:45:34;;;;;;;3.73;1.80;;;18.10;97.10;;;;;;4959780;28;20262;-75
2022/07/29 03:48:03;;;;;;;3.53;1.73;;;18.10;98.20;;;;;;4959124;28;20179;-76
2022/07/29 03:50:30;;;;;;;4.03;2.13;;;18.10;98.10;;;;;;4959481;28;20203;-75
2022/07/29 03:52:56;;;;;;;2.07;1.70;;;18.10;99.80;;;;;;4943360;28;20214;-75
2022/07/29 03:55:22;;;;;;;2.30;1.80;;;18.00;99.90;;;;;;4943220;28;20180;-76
2022/07/29 03:57:49;;;;;;;2.87;1.80;;;17.90;99.90;;;;;;4975422;28;20575;-75
2022/07/29 04:00:15;;;;;;;3.13;1.70;;;17.70;99.90;;;;;;4975252;28;20633;-75
2022/07/29 04:02:46;;;;;;;3.80;2.10;;;17.50;99.90;;;;;;4959645;28;20180;-75
2022/07/29 04:05:13;;;;;;;3.30;1.90;;;17.60;99.90;;;;;;4959989;28;20182;-75
2022/07/29 04:07:38;;;;;;;2.43;1.87;;;17.60;99.90;;;;;;4959161;28;20184;-75
2022/07/29 04:10:04;;;;;;;3.13;1.80;;;17.50;99.90;;;;;;4943394;28;20262;-76
2022/07/29 04:12:30;;;;;;;3.03;1.70;;;17.40;99.90;;;;;;4959158;28;20212;-75
2022/07/29 04:14:56;;;;;;;2.63;1.60;;;17.50;99.90;;;;;;4943184;28;20268;-75
2022/07/29 04:17:21;;;;;;;3.03;1.63;;;17.50;99.90;;;;;;4943090;28;20202;-75
2022/07/29 04:19:47;;;;;;;3.87;1.80;;;17.60;99.90;;;;;;4943442;28;20202;-75
2022/07/29 04:22:12;;;;;;;2.40;1.70;;;17.70;99.90;;;;;;4943292;28;20172;-75
2022/07/29 04:24:38;;;;;;;2.27;2.07;;;17.80;99.90;;;;;;4958996;28;20549;-75
2022/07/29 04:27:03;;;;;;;2.87;1.80;;;17.70;99.90;;;;;;4943148;28;20195;-75
2022/07/29 04:29:29;;;;;;;3.70;1.90;;;17.60;99.90;;;;;;4943080;28;20195;-75
2022/07/29 04:31:54;;;;;;;2.27;1.60;;;17.70;99.90;;;;;;4943241;28;20184;-75
2022/07/29 04:34:20;;;;;;;4.67;1.90;;;17.70;99.90;;;;;;4943117;28;20254;-75
2022/07/29 04:36:46;;;;;;;4.37;1.90;;;17.60;99.90;;;;;;4942769;28;20179;-75
2022/07/29 04:39:12;;;;;;;5.40;1.80;;;17.70;99.90;;;;;;4958932;28;20211;-75
2022/07/29 04:41:37;;;;;;;3.70;1.73;;;17.80;99.90;;;;;;4959023;28;20180;-75
2022/07/29 04:44:05;;;;;;;2.87;1.73;;;17.80;99.90;;;;;;4958721;28;20661;-75
2022/07/29 04:46:31;;;;;;;4.07;1.70;;;17.80;99.90;;;;;;4943296;28;20184;-75
2022/07/29 04:48:56;;;;;;;2.43;1.83;;;18.00;99.90;;;;;;4958841;28;20206;-75
2022/07/29 04:51:22;;;;;;;1.80;1.70;;;18.00;99.90;;;;;;4974956;28;20282;-75
2022/07/29 04:53:47;;;;;;;3.50;1.80;;;17.90;99.90;;;;;;4992018;28;20686;-75
2022/07/29 04:56:13;;;;;;;3.67;1.63;;;18.00;99.90;;;;;;4942812;28;20234;-75
2022/07/29 04:58:39;;;;;;;2.10;1.60;;;17.90;99.90;;;;;;4943070;28;20186;-75
2022/07/29 05:01:05;;;;;;;5.10;1.80;;;17.90;99.90;;;;;;4943126;28;20572;-75
2022/07/29 05:03:30;;;;;;;2.83;1.50;;;18.00;99.90;;;;;;4961231;28;20623;-75
2022/07/29 05:05:56;;;;;;;4.00;1.93;;;18.10;99.90;;;;;;4962252;28;20210;-75
2022/07/29 05:08:21;;;;;;;2.97;1.70;;;18.10;99.90;;;;;;4962007;28;20187;-75
2022/07/29 05:10:47;;;;;;;3.40;1.80;;;18.10;99.90;;;;;;4962085;28;20242;-76
2022/07/29 05:13:13;;;;;;;2.67;1.77;;;18.10;99.90;;;;;;4962215;28;20685;-76
2022/07/29 05:15:38;;;;;;;3.03;1.53;;;18.20;99.90;;;;;;4962237;28;20176;-76
2022/07/29 05:18:05;;;;;;;3.80;1.87;;;18.20;99.90;;;;;;4945938;28;20190;-76
2022/07/29 05:20:32;;;;;;;1.93;1.60;;;18.20;99.90;;;;;;4978321;28;20278;-76
2022/07/29 05:22:59;;;;;;;4.33;2.10;;;18.30;99.90;;;;;;4977925;28;20172;-76
2022/07/29 05:25:28;;;;;;;3.63;2.20;;;18.30;99.90;;;;;;4978147;28;20647;-76
2022/07/29 05:27:55;;;;;;;3.07;1.60;;;18.30;99.90;;;;;;4961876;28;20179;-76
2022/07/29 05:30:21;;;;;;;6.07;1.60;;;18.30;99.90;;;;;;4961793;28;20223;-76
2022/07/29 05:32:47;;;;;;;3.00;1.77;;;18.40;99.90;;;;;;4961804;28;20294;-76
2022/07/29 05:35:14;;;;;;;3.63;1.83;;;18.40;99.90;;;;;;4995210;28;20758;-76
2022/07/29 05:37:40;;;;;;;2.40;1.80;;;18.50;99.90;;;;;;4961555;28;20200;-77
2022/07/29 05:40:06;;;;;;;3.33;2.27;;;18.60;99.90;;;;;;4977656;28;20203;-76
2022/07/29 05:42:32;;;;;;;2.90;1.77;;;18.70;99.90;;;;;;4945727;28;20180;-76
2022/07/29 05:44:58;;;;;;;4.60;2.00;;;18.60;99.90;;;;;;4961206;28;20180;-76
2022/07/29 05:47:24;;;;;;;3.13;1.90;;;18.70;99.90;;;;;;4977504;28;20188;-76
2022/07/29 05:49:50;;;;;;;2.57;1.60;;;18.70;99.90;;;;;;4977655;28;20274;-76
2022/07/29 05:52:16;;;;;;;5.07;1.80;;;18.80;99.90;;;;;;4977362;28;20206;-76
2022/07/29 05:54:42;;;;;;;2.63;1.70;;;18.80;99.90;;;;;;4977656;28;20199;-76
2022/07/29 05:57:08;;;;;;;3.60;1.80;;;18.80;99.90;;;;;;4961296;28;20176;-76
2022/07/29 05:59:37;;;;;;;3.13;2.17;;;18.90;99.90;;;;;;4961262;28;20200;-76
2022/07/29 06:02:04;;;;;;;2.93;1.60;;;18.90;99.90;;;;;;4977457;28;20257;-76
2022/07/29 06:04:31;;;;;;;3.77;1.60;;;18.90;99.90;;;;;;4994581;28;20202;-75
2022/07/29 06:06:56;;;;;;;2.97;1.70;;;18.80;99.90;;;;;;4961304;28;20199;-76
2022/07/29 06:09:22;;;;;;;3.37;1.70;;;18.80;99.90;;;;;;4945045;28;20196;-76
2022/07/29 06:11:48;;;;;;;2.37;1.57;;;18.80;99.90;;;;;;4977207;28;20183;-76
2022/07/29 06:14:14;;;;;;;3.17;1.73;;;18.90;99.90;;;;;;4960658;28;20230;-76
2022/07/29 06:16:39;;;;;;;4.73;1.90;;;18.80;99.90;;;;;;4960985;28;20184;-76
2022/07/29 06:19:05;;;;;;;3.53;1.60;;;18.80;99.90;;;;;;4960718;28;20196;-76
2022/07/29 06:21:31;;;;;;;3.50;1.60;;;18.80;99.90;;;;;;4977153;28;20706;-76
2022/07/29 06:23:57;;;;;;;3.43;1.90;;;18.70;99.90;;;;;;4976832;28;20659;-76
2022/07/29 06:26:22;;;;;;;2.83;1.67;;;18.70;99.90;;;;;;4960556;28;20267;-76
2022/07/29 06:28:48;;;;;;;4.57;1.70;;;18.80;99.90;;;;;;4944800;28;20202;-76
2022/07/29 06:31:14;;;;;;;3.17;1.70;;;18.70;99.90;;;;;;4976857;28;20322;-76
2022/07/29 06:33:40;;;;;;;2.77;1.90;;;18.70;99.90;;;;;;4944654;28;20291;-76
2022/07/29 06:36:05;;;;;;;3.20;1.70;;;18.70;99.90;;;;;;4960566;28;20594;-76
2022/07/29 06:38:32;;;;;;;3.47;1.90;;;18.60;99.90;;;;;;4976586;28;20186;-76
2022/07/29 06:41:02;;;;;;;3.00;1.90;;;18.30;99.90;;;;;;5013581;23;20229;-75
2022/07/29 06:43:41;;;;;;;3.00;2.00;;;18.10;99.90;;;;;;5015354;28;20170;-76
2022/07/29 06:46:12;;;;;;;3.90;2.00;;;17.90;99.90;;;;;;5000274;28;20194;-75
2022/07/29 06:48:39;;;;;;;3.77;2.07;;;17.80;99.90;;;;;;4999360;28;20225;-76
2022/07/29 06:51:05;;;;;;;2.77;1.93;;;17.80;99.90;;;;;;4999186;28;20297;-76
2022/07/29 06:53:31;;;;;;;3.43;1.90;;;17.80;99.90;;;;;;5015407;28;20211;-76
2022/07/29 06:55:59;;;;;;;5.30;2.00;;;17.80;99.90;;;;;;5033013;28;20174;-76
2022/07/29 06:58:25;;;;;;;4.30;2.23;;;17.90;99.90;;;;;;4999121;28;20245;-76
2022/07/29 07:00:51;;;;;;;3.07;2.07;;;17.80;99.90;;;;;;5015100;28;20196;-76
2022/07/29 07:03:17;;;;;;;3.50;2.30;;;17.70;99.90;;;;;;5015359;28;20174;-76
2022/07/29 07:05:44;;;;;;;4.67;2.03;;;17.50;99.90;;;;;;4998816;28;20182;-76
2022/07/29 07:08:10;;;;;;;3.40;2.13;;;17.50;99.90;;;;;;5014841;28;20178;-76
2022/07/29 07:10:35;;;;;;;4.70;2.47;;;17.50;99.90;;;;;;4998540;28;20205;-76
2022/07/29 07:13:02;;;;;;;4.63;2.20;;;17.30;99.90;;;;;;4982466;28;20596;-76
2022/07/29 07:15:28;;;;;;;3.70;2.17;;;17.30;99.90;;;;;;4998505;28;20174;-76
2022/07/29 07:17:53;;;;;;;4.63;2.10;;;17.30;99.90;;;;;;5014978;28;20173;-75
2022/07/29 07:20:19;;;;;;;3.17;2.20;;;17.30;99.90;;;;;;4998582;28;20592;-76
2022/07/29 07:22:45;;;;;;;4.37;2.40;;;17.10;99.90;;;;;;5014863;28;20170;-76
2022/07/29 07:25:12;;;;;;;4.67;2.27;;;17.00;99.90;;;;;;4998042;28;20273;-75
2022/07/29 07:27:37;;;;;;;3.10;2.27;;;16.80;99.90;;;;;;4998395;28;20345;-76
2022/07/29 07:30:05;;;;;;;3.77;2.50;;;16.80;99.90;;;;;;5014691;28;20343;-76
2022/07/29 07:32:32;;;;;;;5.50;2.80;;;16.90;99.90;;;;;;5032419;28;20193;-76
2022/07/29 07:34:58;;;;;;;3.60;2.30;;;16.90;99.90;;;;;;4998574;28;20175;-77
2022/07/29 07:37:25;;;;;;;2.50;1.97;;;17.10;99.90;;;;;;5014784;28;20191;-77
2022/07/29 07:39:51;;;;;;;2.90;2.07;;;17.50;99.90;;;;;;5032232;28;20213;-77
2022/07/29 07:42:17;;;;;;;3.60;1.90;;;18.00;99.90;;;;;;5014779;28;20264;-77
2022/07/29 07:44:45;;;;;;;1.80;1.60;;;18.60;99.90;;;;;;4998269;28;20227;-77
2022/07/29 07:47:14;;;;;;;3.97;2.00;;;19.00;99.90;;;;;;5014791;28;20193;-77
2022/07/29 07:49:39;;;;;;;3.70;2.27;;;19.30;99.90;;;;;;5032369;28;20193;-77
2022/07/29 07:52:05;;;;;;;2.87;2.00;;;19.20;99.90;;;;;;4982161;28;20186;-77
2022/07/29 07:54:31;;;;;;;5.10;2.30;;;18.80;99.90;;;;;;4998389;28;20214;-77
2022/07/29 07:56:56;;;;;;;3.20;1.90;;;18.60;99.90;;;;;;4981815;28;20236;-76
2022/07/29 07:59:22;;;;;;;4.47;1.90;;;18.60;99.90;;;;;;5014894;28;20245;-77
2022/07/29 08:01:48;;;;;;;2.70;1.87;;;18.80;99.90;;;;;;4998451;28;20198;-77
2022/07/29 08:04:14;;;;;;;3.83;1.90;;;18.80;99.90;;;;;;5014737;28;20186;-77
2022/07/29 08:06:39;;;;;;;4.17;2.13;;;19.00;99.90;;;;;;4981841;28;20179;-77
2022/07/29 08:09:05;;;;;;;4.27;2.10;;;19.00;99.90;;;;;;4982102;28;20274;-76
2022/07/29 08:11:31;;;;;;;4.07;1.80;;;18.80;99.90;;;;;;4982071;28;20178;-76
2022/07/29 08:13:57;;;;;;;3.63;2.27;;;18.50;99.90;;;;;;5014430;28;20604;-77
2022/07/29 08:16:24;;;;;;;3.83;2.10;;;18.20;99.90;;;;;;4997976;28;20182;-77
2022/07/29 08:18:50;;;;;;;3.97;1.90;;;18.10;99.90;;;;;;5014405;28;20181;-77
2022/07/29 08:21:16;;;;;;;5.20;2.10;;;18.50;99.90;;;;;;5014276;28;20281;-77
2022/07/29 08:23:46;;;;;;;3.60;1.93;;;18.90;99.90;;;;;;5014632;28;20178;-78
2022/07/29 08:26:13;;;;;;;3.47;1.97;;;19.00;99.90;;;;;;4998571;28;20282;-78
2022/07/29 08:28:40;;;;;;;3.83;1.90;;;19.20;99.90;;;;;;4998567;28;20189;-77
2022/07/29 08:31:06;;;;;;;2.73;2.13;;;19.20;99.90;;;;;;5014762;28;20221;-77
2022/07/29 08:33:33;;;;;;;2.60;2.00;;;19.00;99.90;;;;;;4981796;28;20206;-77
2022/07/29 08:35:58;;;;;;;3.17;2.20;;;18.90;99.90;;;;;;5031932;28;20174;-78
2022/07/29 08:38:25;;;;;;;4.17;2.50;;;18.30;99.90;;;;;;4984730;28;20205;-77
2022/07/29 08:40:52;;;;;;;5.43;2.30;;;17.90;99.90;;;;;;5002027;28;20218;-78
2022/07/29 08:43:19;;;;;;;4.57;2.30;;;17.90;99.90;;;;;;5002052;28;20178;-77
2022/07/29 08:45:50;;;;;;;4.27;2.23;;;18.00;99.90;;;;;;5036549;28;20182;-78
2022/07/29 08:48:19;;;;;;;3.00;1.97;;;18.60;99.90;;;;;;5002050;28;20189;-77
2022/07/29 08:50:45;;;;;;;2.93;2.40;;;18.90;99.90;;;;;;5004270;28;20206;-77
2022/07/29 08:53:13;;;;;;;3.33;2.30;;;18.80;99.90;;;;;;5001707;28;20206;-78
2022/07/29 08:55:42;;;;;;;4.43;2.27;;;18.80;99.90;;;;;;5018209;28;20182;-78
2022/07/29 08:58:08;;;;;;;4.73;2.60;;;18.80;99.90;;;;;;5001949;28;20179;-78
2022/07/29 09:00:36;;;;;;;3.83;2.43;;;18.80;99.90;;;;;;5002238;28;20705;-77
2022/07/29 09:03:04;;;;;;;4.83;2.43;;;18.90;99.90;;;;;;4985995;28;20635;-78
2022/07/29 09:05:30;;;;;;;3.37;2.00;;;19.00;99.90;;;;;;4985517;28;20193;-77
2022/07/29 09:07:56;;;;;;;3.23;2.30;;;18.80;99.90;;;;;;5000987;28;20250;-76
2022/07/29 09:10:22;;;;;;;5.03;2.47;;;19.20;99.90;;;;;;5001591;28;20298;-77
2022/07/29 09:12:48;;;;;;;3.30;2.60;;;19.20;99.90;;;;;;5017677;28;20206;-77
2022/07/29 09:15:14;;;;;;;5.93;2.53;;;19.10;99.90;;;;;;4985726;28;20182;-77
2022/07/29 09:17:45;;;;;;;4.37;2.80;;;18.90;99.90;;;;;;5017923;28;20257;-77
2022/07/29 09:20:14;;;;;;;3.87;2.50;;;19.00;99.90;;;;;;5002072;28;20198;-77
2022/07/29 09:22:39;;;;;;;5.47;3.33;;;18.90;99.90;;;;;;5001364;28;20178;-77
2022/07/29 09:25:06;;;;;;;4.57;2.40;;;19.00;99.90;;;;;;5017688;28;20182;-77
2022/07/29 09:27:31;;;;;;;2.97;2.70;;;19.20;99.90;;;;;;4985162;28;20269;-77
2022/07/29 09:29:58;;;;;;;6.83;3.03;;;19.30;99.90;;;;;;4985084;28;20289;-77
2022/07/29 09:32:24;;;;;;;4.93;2.80;;;19.50;99.90;;;;;;5017470;28;20182;-77
2022/07/29 09:34:49;;;;;;;4.33;3.10;;;19.90;99.90;;;;;;5034983;28;20202;-77
2022/07/29 09:37:30;;;;;;;3.53;2.83;;;20.30;99.90;;;;;;5000829;28;20650;-76
2022/07/29 09:39:56;;;;;;;5.80;2.97;;;20.30;99.90;;;;;;4984509;28;20233;-77
2022/07/29 09:42:29;;;;;;;5.23;2.97;;;20.40;99.90;;;;;;5017351;28;20183;-77
2022/07/29 09:44:55;;;;;;;4.67;2.93;;;20.40;99.90;;;;;;5000642;28;20182;-77
2022/07/29 09:47:25;;;;;;;4.30;2.67;;;20.40;99.90;;;;;;5001104;28;20193;-77
2022/07/29 09:49:54;;;;;;;3.25;2.22;;;20.40;99.90;;;;;;5001061;28;20198;-77
2022/07/29 09:52:20;;;;;;;3.80;3.35;;;20.50;99.90;;;;;;5016988;28;20180;-77
2022/07/29 09:54:45;;;;;;;5.38;2.88;;;20.50;99.90;;;;;;5017001;28;20221;-77
2022/07/29 09:57:28;;;;;;;4.55;2.95;;;20.50;99.90;;;;;;5016719;28;20178;-77
2022/07/29 09:59:59;;;;;;;4.13;3.20;;;20.60;99.90;;;;;;5016886;28;20728;-77
2022/07/29 10:02:30;;;;;;;6.47;3.20;;;20.70;99.90;;;;;;5017007;28;20178;-77
2022/07/29 10:04:56;;;;;;;4.60;3.00;;;20.70;99.90;;;;;;5000521;28;20182;-77
2022/07/29 10:07:22;;;;;;;5.45;3.20;;;20.70;99.90;;;;;;5000680;28;20612;-77
2022/07/29 10:09:56;;;;;;;2.95;2.50;;;20.70;99.90;;;;;;5016728;28;20277;-77
2022/07/29 10:12:22;;;;;;;4.30;3.40;;;21.00;99.90;;;;;;5000236;28;20589;-77
2022/07/29 10:14:49;;;;;;;3.97;3.03;;;21.10;99.90;;;;;;5000393;28;20206;-77
2022/07/29 10:17:16;;;;;;;4.57;3.53;;;21.00;99.90;;;;;;5000437;28;20174;-77
2022/07/29 10:19:42;;;;;;;4.50;3.08;;;21.30;99.90;;;;;;5000367;28;20289;-78
2022/07/29 10:22:09;;;;;;;5.15;3.47;;;21.90;99.90;;;;;;5016472;28;20171;-77
2022/07/29 10:24:39;;;;;;;3.97;3.15;;;22.40;99.90;;;;;;5000254;28;20724;-77
2022/07/29 10:27:07;;;;;;;4.47;2.88;;;22.80;99.90;;;;;;5016292;28;20189;-78
2022/07/29 10:29:33;;;;;;;3.45;3.10;;;22.90;99.90;;;;;;5034132;28;20225;-77
2022/07/29 10:32:24;;;;;;;5.22;3.30;;;23.20;99.90;;;;;;5000579;28;20753;-77
2022/07/29 10:35:15;;;;;;;5.70;3.08;;;23.30;99.90;;;;;;5016402;28;20213;-77
2022/07/29 10:37:55;;;;;;;5.05;3.30;;;23.70;99.90;;;;;;5016020;28;20171;-77
2022/07/29 10:41:26;;;;;;;4.75;3.22;;;23.80;99.90;;;;;;5015888;28;20256;-76
2022/07/29 10:43:54;;;;;;;4.95;2.92;;;23.90;99.90;;;;;;4941968;28;20182;-77
2022/07/29 10:46:21;;;;;;;3.63;2.92;;;24.00;99.90;;;;;;5015807;28;20181;-77
2022/07/29 10:49:16;;;;;;;4.13;2.80;;;24.10;99.90;;;;;;4999463;28;20175;-77
2022/07/29 10:52:03;;;;;;;4.05;2.90;;;24.20;99.90;;;;;;5016070;28;20716;-77
2022/07/29 10:54:35;;;;;;;4.25;2.75;;;24.50;99.90;;;;;;5016027;28;20194;-77
2022/07/29 10:57:20;;;;;;;4.18;2.97;;;24.80;99.90;;;;;;5016102;28;20285;-77
2022/07/29 10:59:47;;;;;;;3.92;3.10;;;25.00;99.90;;;;;;5032302;28;20683;-76
2022/07/29 11:02:39;;;;;;;3.42;2.95;;;25.00;99.90;;;;;;4999161;28;20182;-77
2022/07/29 11:05:08;;;;;;;3.78;2.80;;;24.80;99.90;;;;;;5015781;28;20213;-77
2022/07/29 11:07:35;;;;;;;3.85;2.85;;;24.90;99.90;;;;;;5015548;28;20205;-77
2022/07/29 11:10:13;;;;;;;3.00;2.70;;;25.10;99.90;;;;;;5015636;28;20195;-78
2022/07/29 11:12:38;;;;;;;6.53;3.05;;;25.50;99.90;;;;;;5015399;28;20253;-78
2022/07/29 11:15:05;;;;;;;3.90;2.90;;;25.70;99.90;;;;;;5015443;28;20246;-77
2022/07/29 11:18:02;;;;;;;4.47;2.78;;;25.70;99.90;;;;;;5015528;28;20305;-77
2022/07/29 11:20:47;;;;;;;4.47;2.80;;;25.80;99.90;;;;;;5015459;28;20274;-77
2022/07/29 11:23:31;;;;;;;3.63;2.70;;;25.90;99.90;;;;;;5033307;28;20163;-77
2022/07/29 11:26:24;;;;;;;4.75;2.95;;;26.00;99.90;;;;;;4983280;28;20178;-77
2022/07/29 11:29:02;;;;;;;2.60;2.40;;;26.30;99.90;;;;;;5032920;28;20162;-76
2022/07/29 11:31:30;;;;;;;4.25;2.80;;;26.60;99.90;;;;;;5015462;28;20182;-78
2022/07/29 11:33:56;;;;;;;4.15;3.00;;;26.50;99.90;;;;;;5016112;28;20212;-77
2022/07/29 11:36:22;;;;;;;5.25;2.92;;;26.50;99.90;;;;;;4999285;28;20174;-77
2022/07/29 11:38:47;;;;;;;2.85;2.65;;;26.70;99.90;;;;;;4983461;28;20186;-77
2022/07/29 11:41:24;;;;;;;5.05;3.10;;;26.70;99.90;;;;;;4982845;28;20233;-77
2022/07/29 11:44:07;;;;;;;4.90;2.88;;;26.90;99.90;;;;;;5033206;28;20219;-77
2022/07/29 11:46:46;;;;;;;3.58;2.83;;;27.10;99.90;;;;;;5015241;28;20196;-77
2022/07/29 11:49:13;;;;;;;5.93;3.20;;;27.20;99.90;;;;;;5015492;28;20178;-78
2022/07/29 11:51:39;;;;;;;2.83;2.63;;;27.20;99.90;;;;;;4999049;28;20178;-77
2022/07/29 11:54:05;;;;;;;5.00;2.75;;;27.40;99.90;;;;;;4999256;28;20202;-78
2022/07/29 11:56:32;;;;;;;3.40;2.50;;;27.70;99.90;;;;;;5015200;28;20656;-78
2022/07/29 11:59:10;;;;;;;4.57;2.90;;;27.90;99.90;;;;;;4999114;28;20182;-77
2022/07/29 12:01:36;;;;;;;4.43;2.70;;;28.10;99.90;;;;;;5015160;28;20170;-78
2022/07/29 12:04:06;;;;;;;2.75;2.55;;;28.00;99.90;;;;;;5015052;28;20181;-77
2022/07/29 12:06:33;;;;;;;3.42;2.63;;;27.80;99.90;;;;;;5014928;28;20179;-77
2022/07/29 12:08:58;;;;;;;3.22;2.92;;;27.70;99.90;;;;;;5015045;28;20181;-77
2022/07/29 12:11:24;;;;;;;2.90;2.60;;;27.40;99.90;;;;;;4999988;28;20202;-77
2022/07/29 12:13:52;;;;;;;3.47;2.80;;;27.50;99.90;;;;;;4986454;28;20206;-78
2022/07/29 12:16:20;;;;;;;3.72;2.60;;;27.50;99.90;;;;;;5002712;28;20656;-78
2022/07/29 12:19:00;;;;;;;3.25;2.60;;;27.50;99.90;;;;;;5003420;28;20182;-77
2022/07/29 12:21:26;;;;;;;5.22;2.85;;;27.80;99.90;;;;;;5019425;28;20178;-77
2022/07/29 12:23:54;;;;;;;3.08;2.78;;;28.10;98.80;;;;;;5019007;28;20209;-78
2022/07/29 12:26:20;;;;;;;3.45;2.80;;;28.40;98.20;;;;;;5002717;28;20182;-78
2022/07/29 12:28:46;;;;;;;3.67;3.00;;;28.70;98.80;;;;;;5019380;28;20182;-77
2022/07/29 12:31:15;;;;;;;4.50;3.10;;;29.00;97.30;;;;;;5019086;28;20186;-78
2022/07/29 12:33:42;;;;;;;2.78;2.50;;;29.10;96.70;;;;;;5002664;28;20185;-77
2022/07/29 12:36:08;;;;;;;3.08;2.78;;;29.40;95.20;;;;;;4985858;28;20190;-78
2022/07/29 12:38:40;;;;;;;4.40;2.70;;;29.60;95.40;;;;;;5002742;28;20261;-78
2022/07/29 12:41:06;;;;;;;3.65;2.40;;;30.00;94.20;;;;;;5039339;23;20254;-76
2022/07/29 12:43:33;;;;;;;4.88;2.60;;;30.20;93.70;;;;;;5018549;28;20210;-76
2022/07/29 12:46:12;;;;;;;4.20;3.08;;;30.30;94.10;;;;;;5018527;28;20635;-76
2022/07/29 12:48:40;;;;;;;3.03;2.70;;;30.60;92.00;;;;;;5018737;28;20651;-76
2022/07/29 12:51:08;;;;;;;3.05;2.78;;;30.70;90.70;;;;;;5022683;28;20249;-78
2022/07/29 12:53:34;;;;;;;2.72;2.47;;;31.00;88.20;;;;;;5000144;28;20206;-78
2022/07/29 12:56:03;;;;;;;6.43;2.50;;;31.00;83.90;;;;;;4999786;28;20175;-78
2022/07/29 12:58:33;;;;;;;2.72;2.40;;;31.20;85.60;;;;;;5000231;28;20270;-78